sensor_id;sensor_type;location;lat;lon;timestamp;temperature;humidity
27072;DHT22;14613;46.308;25.288;2023-03-11T00:00:41;12.70;68.60
27072;DHT22;14613;46.308;25.288;2023-03-11T00:03:11;12.70;68.60
27072;DHT22;14613;46.308;25.288;2023-03-11T00:05:39;12.70;68.60
27072;DHT22;14613;46.308;25.288;2023-03-11T00:08:07;12.70;68.70
27072;DHT22;14613;46.308;25.288;2023-03-11T00:10:38;12.70;68.90
27072;DHT22;14613;46.308;25.288;2023-03-11T00:13:06;12.60;69.00
27072;DHT22;14613;46.308;25.288;2023-03-11T00:15:33;12.60;69.20
27072;DHT22;14613;46.308;25.288;2023-03-11T00:17:59;12.60;69.20
27072;DHT22;14613;46.308;25.288;2023-03-11T00:20:27;12.60;69.30
27072;DHT22;14613;46.308;25.288;2023-03-11T00:22:53;12.60;69.40
27072;DHT22;14613;46.308;25.288;2023-03-11T00:25:21;12.50;69.30
27072;DHT22;14613;46.308;25.288;2023-03-11T00:27:47;12.60;69.50
27072;DHT22;14613;46.308;25.288;2023-03-11T00:30:14;12.60;69.50
27072;DHT22;14613;46.308;25.288;2023-03-11T00:32:40;12.50;69.60
27072;DHT22;14613;46.308;25.288;2023-03-11T00:35:07;12.50;69.70
27072;DHT22;14613;46.308;25.288;2023-03-11T00:37:33;12.50;70.00
27072;DHT22;14613;46.308;25.288;2023-03-11T00:39:59;12.40;69.90
27072;DHT22;14613;46.308;25.288;2023-03-11T00:42:25;12.40;70.00
27072;DHT22;14613;46.308;25.288;2023-03-11T00:44:50;12.40;70.10
27072;DHT22;14613;46.308;25.288;2023-03-11T00:47:16;12.40;70.20
27072;DHT22;14613;46.308;25.288;2023-03-11T00:49:42;12.40;70.20
27072;DHT22;14613;46.308;25.288;2023-03-11T00:52:08;12.40;70.10
27072;DHT22;14613;46.308;25.288;2023-03-11T00:54:34;12.40;70.20
27072;DHT22;14613;46.308;25.288;2023-03-11T00:56:59;12.30;70.30
27072;DHT22;14613;46.308;25.288;2023-03-11T00:59:25;12.30;70.60
27072;DHT22;14613;46.308;25.288;2023-03-11T01:01:51;12.20;70.60
27072;DHT22;14613;46.308;25.288;2023-03-11T01:04:17;12.20;70.70
27072;DHT22;14613;46.308;25.288;2023-03-11T01:06:42;12.20;70.80
27072;DHT22;14613;46.308;25.288;2023-03-11T01:09:08;12.20;70.90
27072;DHT22;14613;46.308;25.288;2023-03-11T01:11:34;12.10;70.80
27072;DHT22;14613;46.308;25.288;2023-03-11T01:14:00;12.10;70.90
27072;DHT22;14613;46.308;25.288;2023-03-11T01:16:26;12.00;71.10
27072;DHT22;14613;46.308;25.288;2023-03-11T01:18:52;12.00;71.40
27072;DHT22;14613;46.308;25.288;2023-03-11T01:21:18;12.00;71.40
27072;DHT22;14613;46.308;25.288;2023-03-11T01:23:43;12.00;71.40
27072;DHT22;14613;46.308;25.288;2023-03-11T01:26:09;11.90;71.60
27072;DHT22;14613;46.308;25.288;2023-03-11T01:28:35;11.80;71.80
27072;DHT22;14613;46.308;25.288;2023-03-11T01:31:01;11.80;71.90
27072;DHT22;14613;46.308;25.288;2023-03-11T01:33:27;11.80;72.00
27072;DHT22;14613;46.308;25.288;2023-03-11T01:35:53;11.80;72.10
27072;DHT22;14613;46.308;25.288;2023-03-11T01:38:19;11.80;72.10
27072;DHT22;14613;46.308;25.288;2023-03-11T01:40:48;11.80;72.10
27072;DHT22;14613;46.308;25.288;2023-03-11T01:46:06;11.80;72.10
27072;DHT22;14613;46.308;25.288;2023-03-11T01:48:33;11.80;72.20
27072;DHT22;14613;46.308;25.288;2023-03-11T01:50:58;11.80;72.30
27072;DHT22;14613;46.308;25.288;2023-03-11T01:53:25;11.80;72.30
27072;DHT22;14613;46.308;25.288;2023-03-11T01:55:51;11.80;72.30
27072;DHT22;14613;46.308;25.288;2023-03-11T01:58:21;11.80;72.30
27072;DHT22;14613;46.308;25.288;2023-03-11T02:00:49;11.80;72.30
27072;DHT22;14613;46.308;25.288;2023-03-11T02:03:25;11.80;72.30
27072;DHT22;14613;46.308;25.288;2023-03-11T02:05:53;11.80;72.30
27072;DHT22;14613;46.308;25.288;2023-03-11T02:08:20;11.80;72.30
27072;DHT22;14613;46.308;25.288;2023-03-11T02:10:48;11.80;72.30
27072;DHT22;14613;46.308;25.288;2023-03-11T02:13:15;11.80;72.30
27072;DHT22;14613;46.308;25.288;2023-03-11T02:15:41;11.70;72.50
27072;DHT22;14613;46.308;25.288;2023-03-11T02:18:07;11.60;72.80
27072;DHT22;14613;46.308;25.288;2023-03-11T02:23:16;11.50;73.20
27072;DHT22;14613;46.308;25.288;2023-03-11T02:25:56;11.50;73.30
27072;DHT22;14613;46.308;25.288;2023-03-11T02:28:26;11.40;73.30
27072;DHT22;14613;46.308;25.288;2023-03-11T02:30:55;11.50;73.40
27072;DHT22;14613;46.308;25.288;2023-03-11T02:33:23;11.50;73.40
27072;DHT22;14613;46.308;25.288;2023-03-11T02:35:51;11.50;73.40
27072;DHT22;14613;46.308;25.288;2023-03-11T02:38:17;11.50;73.40
27072;DHT22;14613;46.308;25.288;2023-03-11T02:40:49;11.50;73.30
27072;DHT22;14613;46.308;25.288;2023-03-11T02:43:19;11.50;73.30
27072;DHT22;14613;46.308;25.288;2023-03-11T02:45:47;11.50;73.30
27072;DHT22;14613;46.308;25.288;2023-03-11T02:48:14;11.60;73.30
27072;DHT22;14613;46.308;25.288;2023-03-11T02:50:42;11.60;73.20
27072;DHT22;14613;46.308;25.288;2023-03-11T02:53:08;11.60;73.20
27072;DHT22;14613;46.308;25.288;2023-03-11T02:55:34;11.60;73.20
27072;DHT22;14613;46.308;25.288;2023-03-11T02:58:00;11.60;73.30
27072;DHT22;14613;46.308;25.288;2023-03-11T03:00:26;11.60;73.40
27072;DHT22;14613;46.308;25.288;2023-03-11T03:02:52;11.50;73.30
27072;DHT22;14613;46.308;25.288;2023-03-11T03:05:20;11.50;74.10
27072;DHT22;14613;46.308;25.288;2023-03-11T03:07:47;11.50;73.40
27072;DHT22;14613;46.308;25.288;2023-03-11T03:10:14;11.50;73.40
27072;DHT22;14613;46.308;25.288;2023-03-11T03:12:40;11.40;73.40
27072;DHT22;14613;46.308;25.288;2023-03-11T03:15:07;11.40;73.70
27072;DHT22;14613;46.308;25.288;2023-03-11T03:17:33;11.40;73.80
27072;DHT22;14613;46.308;25.288;2023-03-11T03:19:59;11.30;73.90
27072;DHT22;14613;46.308;25.288;2023-03-11T03:22:24;11.30;74.10
27072;DHT22;14613;46.308;25.288;2023-03-11T03:24:52;11.30;74.20
27072;DHT22;14613;46.308;25.288;2023-03-11T03:27:18;11.30;74.30
27072;DHT22;14613;46.308;25.288;2023-03-11T03:29:44;11.20;74.30
27072;DHT22;14613;46.308;25.288;2023-03-11T03:32:10;11.20;74.40
27072;DHT22;14613;46.308;25.288;2023-03-11T03:34:36;11.20;74.50
27072;DHT22;14613;46.308;25.288;2023-03-11T03:37:02;11.20;74.50
27072;DHT22;14613;46.308;25.288;2023-03-11T03:39:27;11.20;74.50
27072;DHT22;14613;46.308;25.288;2023-03-11T03:41:53;11.20;74.50
27072;DHT22;14613;46.308;25.288;2023-03-11T03:44:19;11.20;74.60
27072;DHT22;14613;46.308;25.288;2023-03-11T03:46:45;11.10;74.60
27072;DHT22;14613;46.308;25.288;2023-03-11T03:49:11;11.10;74.70
27072;DHT22;14613;46.308;25.288;2023-03-11T03:51:36;11.00;74.90
27072;DHT22;14613;46.308;25.288;2023-03-11T03:54:02;11.00;75.20
27072;DHT22;14613;46.308;25.288;2023-03-11T03:56:28;10.90;75.40
27072;DHT22;14613;46.308;25.288;2023-03-11T03:58:54;10.80;75.50
27072;DHT22;14613;46.308;25.288;2023-03-11T04:01:20;10.80;75.60
27072;DHT22;14613;46.308;25.288;2023-03-11T04:03:46;10.80;75.70
27072;DHT22;14613;46.308;25.288;2023-03-11T04:06:16;10.80;75.60
27072;DHT22;14613;46.308;25.288;2023-03-11T04:08:43;10.90;75.60
27072;DHT22;14613;46.308;25.288;2023-03-11T04:11:08;10.90;75.50
27072;DHT22;14613;46.308;25.288;2023-03-11T04:13:34;10.90;75.40
27072;DHT22;14613;46.308;25.288;2023-03-11T04:16:05;11.00;75.40
27072;DHT22;14613;46.308;25.288;2023-03-11T04:18:32;11.00;75.30
27072;DHT22;14613;46.308;25.288;2023-03-11T04:20:57;11.00;75.20
27072;DHT22;14613;46.308;25.288;2023-03-11T04:23:23;11.10;75.10
27072;DHT22;14613;46.308;25.288;2023-03-11T04:25:49;11.10;75.20
27072;DHT22;14613;46.308;25.288;2023-03-11T04:28:15;11.00;75.00
27072;DHT22;14613;46.308;25.288;2023-03-11T04:30:41;11.00;75.00
27072;DHT22;14613;46.308;25.288;2023-03-11T04:33:07;11.00;75.00
27072;DHT22;14613;46.308;25.288;2023-03-11T04:35:33;11.00;75.00
27072;DHT22;14613;46.308;25.288;2023-03-11T04:37:59;10.90;75.10
27072;DHT22;14613;46.308;25.288;2023-03-11T04:40:25;10.90;75.20
27072;DHT22;14613;46.308;25.288;2023-03-11T04:42:52;10.90;75.30
27072;DHT22;14613;46.308;25.288;2023-03-11T04:45:18;10.90;75.40
27072;DHT22;14613;46.308;25.288;2023-03-11T04:47:48;10.90;75.40
27072;DHT22;14613;46.308;25.288;2023-03-11T04:50:15;10.90;75.30
27072;DHT22;14613;46.308;25.288;2023-03-11T04:52:41;10.90;75.30
27072;DHT22;14613;46.308;25.288;2023-03-11T04:55:07;10.90;75.40
27072;DHT22;14613;46.308;25.288;2023-03-11T04:57:33;10.80;75.60
27072;DHT22;14613;46.308;25.288;2023-03-11T04:59:59;10.80;75.90
27072;DHT22;14613;46.308;25.288;2023-03-11T05:02:25;10.70;76.10
27072;DHT22;14613;46.308;25.288;2023-03-11T05:04:50;10.70;76.30
27072;DHT22;14613;46.308;25.288;2023-03-11T05:07:16;10.70;76.40
27072;DHT22;14613;46.308;25.288;2023-03-11T05:09:42;10.70;76.40
27072;DHT22;14613;46.308;25.288;2023-03-11T05:12:11;10.70;76.40
27072;DHT22;14613;46.308;25.288;2023-03-11T05:14:37;10.70;76.40
27072;DHT22;14613;46.308;25.288;2023-03-11T05:17:02;10.80;76.50
27072;DHT22;14613;46.308;25.288;2023-03-11T05:19:28;10.80;76.50
27072;DHT22;14613;46.308;25.288;2023-03-11T05:22:00;10.80;76.40
27072;DHT22;14613;46.308;25.288;2023-03-11T05:24:27;10.80;76.30
27072;DHT22;14613;46.308;25.288;2023-03-11T05:26:53;10.90;76.30
27072;DHT22;14613;46.308;25.288;2023-03-11T05:29:19;10.90;76.20
27072;DHT22;14613;46.308;25.288;2023-03-11T05:31:46;11.00;76.20
27072;DHT22;14613;46.308;25.288;2023-03-11T05:34:13;10.90;76.10
27072;DHT22;14613;46.308;25.288;2023-03-11T05:36:38;10.80;76.30
27072;DHT22;14613;46.308;25.288;2023-03-11T05:39:04;10.90;76.50
27072;DHT22;14613;46.308;25.288;2023-03-11T05:41:30;10.90;76.50
27072;DHT22;14613;46.308;25.288;2023-03-11T05:43:56;10.90;76.50
27072;DHT22;14613;46.308;25.288;2023-03-11T05:46:22;10.90;76.50
27072;DHT22;14613;46.308;25.288;2023-03-11T05:48:47;10.90;76.50
27072;DHT22;14613;46.308;25.288;2023-03-11T05:51:13;10.90;76.50
27072;DHT22;14613;46.308;25.288;2023-03-11T05:53:44;11.00;76.50
27072;DHT22;14613;46.308;25.288;2023-03-11T05:56:13;11.00;76.60
27072;DHT22;14613;46.308;25.288;2023-03-11T05:58:39;11.00;76.60
27072;DHT22;14613;46.308;25.288;2023-03-11T06:01:10;11.00;76.60
27072;DHT22;14613;46.308;25.288;2023-03-11T06:03:37;11.00;76.60
27072;DHT22;14613;46.308;25.288;2023-03-11T06:06:04;11.00;76.70
27072;DHT22;14613;46.308;25.288;2023-03-11T06:08:31;11.10;76.70
27072;DHT22;14613;46.308;25.288;2023-03-11T06:11:06;11.10;76.70
27072;DHT22;14613;46.308;25.288;2023-03-11T06:13:33;11.10;76.70
27072;DHT22;14613;46.308;25.288;2023-03-11T06:15:59;11.20;76.70
27072;DHT22;14613;46.308;25.288;2023-03-11T06:18:25;11.30;76.70
27072;DHT22;14613;46.308;25.288;2023-03-11T06:20:52;11.30;76.40
27072;DHT22;14613;46.308;25.288;2023-03-11T06:23:18;11.40;76.40
27072;DHT22;14613;46.308;25.288;2023-03-11T06:25:53;11.40;76.20
27072;DHT22;14613;46.308;25.288;2023-03-11T06:28:19;11.50;76.20
27072;DHT22;14613;46.308;25.288;2023-03-11T06:30:44;11.50;76.10
27072;DHT22;14613;46.308;25.288;2023-03-11T06:33:10;11.60;76.10
27072;DHT22;14613;46.308;25.288;2023-03-11T06:35:38;11.60;76.10
27072;DHT22;14613;46.308;25.288;2023-03-11T06:38:04;11.60;75.90
27072;DHT22;14613;46.308;25.288;2023-03-11T06:40:30;11.60;75.90
27072;DHT22;14613;46.308;25.288;2023-03-11T06:42:56;11.60;76.00
27072;DHT22;14613;46.308;25.288;2023-03-11T06:45:21;11.70;76.10
27072;DHT22;14613;46.308;25.288;2023-03-11T06:47:47;11.70;76.10
27072;DHT22;14613;46.308;25.288;2023-03-11T06:50:13;11.70;76.20
27072;DHT22;14613;46.308;25.288;2023-03-11T06:52:39;11.80;76.20
27072;DHT22;14613;46.308;25.288;2023-03-11T06:55:05;11.90;76.10
27072;DHT22;14613;46.308;25.288;2023-03-11T06:57:32;11.90;76.00
27072;DHT22;14613;46.308;25.288;2023-03-11T06:59:58;12.00;76.00
27072;DHT22;14613;46.308;25.288;2023-03-11T07:02:23;12.00;75.80
27072;DHT22;14613;46.308;25.288;2023-03-11T07:04:49;12.10;75.80
27072;DHT22;14613;46.308;25.288;2023-03-11T07:07:15;12.10;75.80
27072;DHT22;14613;46.308;25.288;2023-03-11T07:09:41;12.10;75.80
27072;DHT22;14613;46.308;25.288;2023-03-11T07:12:07;12.20;75.90
27072;DHT22;14613;46.308;25.288;2023-03-11T07:14:33;12.20;75.90
27072;DHT22;14613;46.308;25.288;2023-03-11T07:16:59;12.20;76.00
27072;DHT22;14613;46.308;25.288;2023-03-11T07:19:25;12.20;76.00
27072;DHT22;14613;46.308;25.288;2023-03-11T07:21:51;12.10;76.10
27072;DHT22;14613;46.308;25.288;2023-03-11T07:24:17;12.10;76.30
27072;DHT22;14613;46.308;25.288;2023-03-11T07:26:42;12.10;76.40
27072;DHT22;14613;46.308;25.288;2023-03-11T07:29:08;12.10;76.50
27072;DHT22;14613;46.308;25.288;2023-03-11T07:31:36;12.00;76.50
27072;DHT22;14613;46.308;25.288;2023-03-11T07:34:04;12.00;76.70
27072;DHT22;14613;46.308;25.288;2023-03-11T07:36:31;11.90;76.70
27072;DHT22;14613;46.308;25.288;2023-03-11T07:38:59;11.90;76.80
27072;DHT22;14613;46.308;25.288;2023-03-11T07:41:29;11.90;76.80
27072;DHT22;14613;46.308;25.288;2023-03-11T07:43:56;11.90;77.00
27072;DHT22;14613;46.308;25.288;2023-03-11T07:46:24;11.80;77.10
27072;DHT22;14613;46.308;25.288;2023-03-11T07:48:51;11.80;77.20
27072;DHT22;14613;46.308;25.288;2023-03-11T07:51:25;11.80;77.40
27072;DHT22;14613;46.308;25.288;2023-03-11T07:53:53;11.80;78.50
27072;DHT22;14613;46.308;25.288;2023-03-11T07:56:21;11.80;78.00
27072;DHT22;14613;46.308;25.288;2023-03-11T07:58:48;11.70;79.00
27072;DHT22;14613;46.308;25.288;2023-03-11T08:01:16;11.80;78.40
27072;DHT22;14613;46.308;25.288;2023-03-11T08:03:44;11.80;78.40
27072;DHT22;14613;46.308;25.288;2023-03-11T08:06:18;11.80;78.40
27072;DHT22;14613;46.308;25.288;2023-03-11T08:08:45;11.90;78.50
27072;DHT22;14613;46.308;25.288;2023-03-11T08:11:12;11.90;78.70
27072;DHT22;14613;46.308;25.288;2023-03-11T08:13:42;11.90;78.70
27072;DHT22;14613;46.308;25.288;2023-03-11T08:16:11;11.90;78.80
27072;DHT22;14613;46.308;25.288;2023-03-11T08:18:37;12.00;79.00
27072;DHT22;14613;46.308;25.288;2023-03-11T08:21:09;12.00;79.00
27072;DHT22;14613;46.308;25.288;2023-03-11T08:23:35;12.00;79.10
27072;DHT22;14613;46.308;25.288;2023-03-11T08:26:05;12.00;79.20
27072;DHT22;14613;46.308;25.288;2023-03-11T08:28:31;12.10;79.20
27072;DHT22;14613;46.308;25.288;2023-03-11T08:30:57;12.20;79.20
27072;DHT22;14613;46.308;25.288;2023-03-11T08:33:23;12.10;79.30
27072;DHT22;14613;46.308;25.288;2023-03-11T08:35:48;12.00;79.60
27072;DHT22;14613;46.308;25.288;2023-03-11T08:38:14;11.90;79.90
27072;DHT22;14613;46.308;25.288;2023-03-11T08:40:40;11.90;80.20
27072;DHT22;14613;46.308;25.288;2023-03-11T08:43:06;11.80;80.20
27072;DHT22;14613;46.308;25.288;2023-03-11T08:45:32;11.80;80.30
27072;DHT22;14613;46.308;25.288;2023-03-11T08:47:58;11.80;80.40
27072;DHT22;14613;46.308;25.288;2023-03-11T08:50:24;11.80;80.40
27072;DHT22;14613;46.308;25.288;2023-03-11T08:52:50;11.80;80.40
27072;DHT22;14613;46.308;25.288;2023-03-11T08:55:16;11.80;80.30
27072;DHT22;14613;46.308;25.288;2023-03-11T08:57:48;11.80;80.30
27072;DHT22;14613;46.308;25.288;2023-03-11T09:00:14;11.80;80.20
27072;DHT22;14613;46.308;25.288;2023-03-11T09:02:39;11.90;80.20
27072;DHT22;14613;46.308;25.288;2023-03-11T09:05:06;12.00;80.00
27072;DHT22;14613;46.308;25.288;2023-03-11T09:07:32;12.00;79.90
27072;DHT22;14613;46.308;25.288;2023-03-11T09:09:57;12.10;79.70
27072;DHT22;14613;46.308;25.288;2023-03-11T09:12:23;12.10;79.60
27072;DHT22;14613;46.308;25.288;2023-03-11T09:14:49;12.10;79.60
27072;DHT22;14613;46.308;25.288;2023-03-11T09:17:15;12.10;79.50
27072;DHT22;14613;46.308;25.288;2023-03-11T09:19:41;12.20;79.50
27072;DHT22;14613;46.308;25.288;2023-03-11T09:22:07;12.30;79.30
27072;DHT22;14613;46.308;25.288;2023-03-11T09:24:33;12.40;79.60
27072;DHT22;14613;46.308;25.288;2023-03-11T09:27:00;12.50;79.00
27072;DHT22;14613;46.308;25.288;2023-03-11T09:29:26;12.50;79.00
27072;DHT22;14613;46.308;25.288;2023-03-11T09:31:52;12.50;79.00
27072;DHT22;14613;46.308;25.288;2023-03-11T09:34:18;12.70;79.10
27072;DHT22;14613;46.308;25.288;2023-03-11T09:36:44;12.70;78.90
27072;DHT22;14613;46.308;25.288;2023-03-11T09:39:10;12.80;78.90
27072;DHT22;14613;46.308;25.288;2023-03-11T09:41:52;12.90;78.70
27072;DHT22;14613;46.308;25.288;2023-03-11T09:44:41;13.00;78.50
27072;DHT22;14613;46.308;25.288;2023-03-11T09:52:45;13.20;78.40
27072;DHT22;14613;46.308;25.288;2023-03-11T09:55:34;13.20;78.30
27072;DHT22;14613;46.308;25.288;2023-03-11T09:58:30;13.30;78.20
27072;DHT22;14613;46.308;25.288;2023-03-11T10:00:56;13.40;78.10
27072;DHT22;14613;46.308;25.288;2023-03-11T10:03:33;13.40;77.70
27072;DHT22;14613;46.308;25.288;2023-03-11T10:06:23;13.40;77.50
27072;DHT22;14613;46.308;25.288;2023-03-11T10:11:36;13.30;77.30
27072;DHT22;14613;46.308;25.288;2023-03-11T10:14:36;13.10;77.40
27072;DHT22;14613;46.308;25.288;2023-03-11T10:17:21;13.00;77.60
27072;DHT22;14613;46.308;25.288;2023-03-11T10:20:07;12.90;77.80
27072;DHT22;14613;46.308;25.288;2023-03-11T10:28:16;12.60;78.30
27072;DHT22;14613;46.308;25.288;2023-03-11T10:31:02;12.60;78.40
27072;DHT22;14613;46.308;25.288;2023-03-11T10:33:45;12.50;78.60
27072;DHT22;14613;46.308;25.288;2023-03-11T10:36:20;12.50;78.90
27072;DHT22;14613;46.308;25.288;2023-03-11T10:38:50;12.50;79.00
27072;DHT22;14613;46.308;25.288;2023-03-11T10:41:42;12.60;79.20
27072;DHT22;14613;46.308;25.288;2023-03-11T10:44:26;12.80;79.10
27072;DHT22;14613;46.308;25.288;2023-03-11T10:46:52;12.90;78.90
27072;DHT22;14613;46.308;25.288;2023-03-11T10:49:18;13.00;78.80
27072;DHT22;14613;46.308;25.288;2023-03-11T10:51:46;13.10;78.80
27072;DHT22;14613;46.308;25.288;2023-03-11T10:54:29;13.30;78.50
27072;DHT22;14613;46.308;25.288;2023-03-11T10:57:01;13.40;78.00
27072;DHT22;14613;46.308;25.288;2023-03-11T10:59:31;13.40;77.50
27072;DHT22;14613;46.308;25.288;2023-03-11T11:02:18;13.40;77.10
27072;DHT22;14613;46.308;25.288;2023-03-11T11:04:45;13.40;76.90
27072;DHT22;14613;46.308;25.288;2023-03-11T11:07:27;13.30;76.80
27072;DHT22;14613;46.308;25.288;2023-03-11T11:10:12;13.30;76.60
27072;DHT22;14613;46.308;25.288;2023-03-11T11:13:01;13.30;76.50
27072;DHT22;14613;46.308;25.288;2023-03-11T11:15:29;13.30;76.50
27072;DHT22;14613;46.308;25.288;2023-03-11T11:18:01;13.30;76.30
27072;DHT22;14613;46.308;25.288;2023-03-11T11:20:28;13.30;76.30
27072;DHT22;14613;46.308;25.288;2023-03-11T11:22:57;13.30;77.20
27072;DHT22;14613;46.308;25.288;2023-03-11T11:25:29;13.30;76.30
27072;DHT22;14613;46.308;25.288;2023-03-11T11:27:58;13.40;76.20
27072;DHT22;14613;46.308;25.288;2023-03-11T11:30:25;13.40;75.90
27072;DHT22;14613;46.308;25.288;2023-03-11T11:32:50;13.40;75.70
27072;DHT22;14613;46.308;25.288;2023-03-11T11:35:18;13.40;75.80
27072;DHT22;14613;46.308;25.288;2023-03-11T11:37:53;13.40;75.90
27072;DHT22;14613;46.308;25.288;2023-03-11T11:43:13;13.20;75.90
27072;DHT22;14613;46.308;25.288;2023-03-11T11:45:43;13.10;75.80
27072;DHT22;14613;46.308;25.288;2023-03-11T11:48:24;13.20;75.90
27072;DHT22;14613;46.308;25.288;2023-03-11T11:50:56;13.20;75.80
27072;DHT22;14613;46.308;25.288;2023-03-11T11:56:25;13.30;75.70
27072;DHT22;14613;46.308;25.288;2023-03-11T11:58:51;13.40;75.60
27072;DHT22;14613;46.308;25.288;2023-03-11T12:01:24;13.50;75.50
27072;DHT22;14613;46.308;25.288;2023-03-11T12:06:42;13.60;74.90
27072;DHT22;14613;46.308;25.288;2023-03-11T12:12:13;13.60;73.80
27072;DHT22;14613;46.308;25.288;2023-03-11T12:15:15;13.70;73.40
27072;DHT22;14613;46.308;25.288;2023-03-11T12:17:44;13.70;72.60
27072;DHT22;14613;46.308;25.288;2023-03-11T12:20:41;13.70;71.90
27072;DHT22;14613;46.308;25.288;2023-03-11T12:31:12;13.50;69.20
27072;DHT22;14613;46.308;25.288;2023-03-11T12:33:47;13.50;69.00
27072;DHT22;14613;46.308;25.288;2023-03-11T12:36:22;13.50;68.70
27072;DHT22;14613;46.308;25.288;2023-03-11T12:38:49;13.50;68.70
27072;DHT22;14613;46.308;25.288;2023-03-11T12:41:34;13.50;68.40
27072;DHT22;14613;46.308;25.288;2023-03-11T12:44:25;13.50;68.10
27072;DHT22;14613;46.308;25.288;2023-03-11T12:49:33;13.60;67.80
27072;DHT22;14613;46.308;25.288;2023-03-11T12:54:45;13.50;67.20
27072;DHT22;14613;46.308;25.288;2023-03-11T13:10:43;13.50;66.00
27072;DHT22;14613;46.308;25.288;2023-03-11T13:15:54;13.50;65.50
27072;DHT22;14613;46.308;25.288;2023-03-11T13:18:24;13.50;65.30
27072;DHT22;14613;46.308;25.288;2023-03-11T13:31:40;13.40;64.80
27072;DHT22;14613;46.308;25.288;2023-03-11T13:42:46;13.40;64.60
27072;DHT22;14613;46.308;25.288;2023-03-11T13:45:26;13.40;64.60
27072;DHT22;14613;46.308;25.288;2023-03-11T13:47:56;13.30;65.30
27072;DHT22;14613;46.308;25.288;2023-03-11T13:50:33;13.30;64.20
27072;DHT22;14613;46.308;25.288;2023-03-11T13:53:02;13.20;64.00
27072;DHT22;14613;46.308;25.288;2023-03-11T13:55:40;13.00;63.80
27072;DHT22;14613;46.308;25.288;2023-03-11T13:58:17;12.90;63.70
27072;DHT22;14613;46.308;25.288;2023-03-11T14:00:53;12.70;63.90
27072;DHT22;14613;46.308;25.288;2023-03-11T14:03:21;12.70;64.00
27072;DHT22;14613;46.308;25.288;2023-03-11T14:05:55;12.60;64.00
27072;DHT22;14613;46.308;25.288;2023-03-11T14:13:20;12.30;64.00
27072;DHT22;14613;46.308;25.288;2023-03-11T14:18:44;12.30;64.00
27072;DHT22;14613;46.308;25.288;2023-03-11T14:21:13;12.20;64.00
27072;DHT22;14613;46.308;25.288;2023-03-11T14:23:49;12.10;63.90
27072;DHT22;14613;46.308;25.288;2023-03-11T14:28:56;11.80;64.00
27072;DHT22;14613;46.308;25.288;2023-03-11T14:31:38;11.70;64.20
27072;DHT22;14613;46.308;25.288;2023-03-11T14:34:14;11.60;64.30
27072;DHT22;14613;46.308;25.288;2023-03-11T14:36:51;11.40;64.50
27072;DHT22;14613;46.308;25.288;2023-03-11T14:39:32;11.40;64.90
27072;DHT22;14613;46.308;25.288;2023-03-11T14:42:26;11.30;65.10
27072;DHT22;14613;46.308;25.288;2023-03-11T14:45:14;11.30;65.20
27072;DHT22;14613;46.308;25.288;2023-03-11T14:50:19;11.30;65.20
27072;DHT22;14613;46.308;25.288;2023-03-11T14:52:57;11.40;65.30
27072;DHT22;14613;46.308;25.288;2023-03-11T14:55:31;11.40;65.30
27072;DHT22;14613;46.308;25.288;2023-03-11T14:58:09;11.40;65.20
27072;DHT22;14613;46.308;25.288;2023-03-11T15:00:41;11.40;65.30
27072;DHT22;14613;46.308;25.288;2023-03-11T15:03:18;11.40;65.30
27072;DHT22;14613;46.308;25.288;2023-03-11T15:05:53;11.40;65.30
27072;DHT22;14613;46.308;25.288;2023-03-11T15:08:21;11.40;65.20
27072;DHT22;14613;46.308;25.288;2023-03-11T15:13:35;11.50;65.20
27072;DHT22;14613;46.308;25.288;2023-03-11T15:16:03;11.50;65.20
27072;DHT22;14613;46.308;25.288;2023-03-11T15:18:35;11.60;65.30
27072;DHT22;14613;46.308;25.288;2023-03-11T15:21:16;11.50;65.40
27072;DHT22;14613;46.308;25.288;2023-03-11T15:23:51;11.40;65.70
27072;DHT22;14613;46.308;25.288;2023-03-11T15:26:24;11.30;66.00
27072;DHT22;14613;46.308;25.288;2023-03-11T15:29:12;11.10;66.20
27072;DHT22;14613;46.308;25.288;2023-03-11T15:31:38;11.10;66.60
27072;DHT22;14613;46.308;25.288;2023-03-11T15:34:22;11.00;66.90
27072;DHT22;14613;46.308;25.288;2023-03-11T15:44:36;10.90;67.30
27072;DHT22;14613;46.308;25.288;2023-03-11T15:47:12;10.90;67.30
27072;DHT22;14613;46.308;25.288;2023-03-11T15:49:38;11.00;67.30
27072;DHT22;14613;46.308;25.288;2023-03-11T15:52:04;11.00;67.20
27072;DHT22;14613;46.308;25.288;2023-03-11T15:54:30;10.90;67.00
27072;DHT22;14613;46.308;25.288;2023-03-11T15:56:58;10.80;67.00
27072;DHT22;14613;46.308;25.288;2023-03-11T15:59:27;10.80;66.80
27072;DHT22;14613;46.308;25.288;2023-03-11T16:01:54;10.70;66.80
27072;DHT22;14613;46.308;25.288;2023-03-11T16:04:21;10.60;66.80
27072;DHT22;14613;46.308;25.288;2023-03-11T16:06:48;10.60;66.80
27072;DHT22;14613;46.308;25.288;2023-03-11T16:09:14;10.50;66.80
27072;DHT22;14613;46.308;25.288;2023-03-11T16:11:41;10.50;67.00
27072;DHT22;14613;46.308;25.288;2023-03-11T16:14:16;10.40;67.00
27072;DHT22;14613;46.308;25.288;2023-03-11T16:16:43;10.30;67.00
27072;DHT22;14613;46.308;25.288;2023-03-11T16:19:09;10.20;67.00
27072;DHT22;14613;46.308;25.288;2023-03-11T16:21:47;10.10;67.10
27072;DHT22;14613;46.308;25.288;2023-03-11T16:24:21;10.10;67.20
27072;DHT22;14613;46.308;25.288;2023-03-11T16:26:48;9.90;67.20
27072;DHT22;14613;46.308;25.288;2023-03-11T16:29:15;9.80;67.20
27072;DHT22;14613;46.308;25.288;2023-03-11T16:31:41;9.70;67.20
27072;DHT22;14613;46.308;25.288;2023-03-11T16:34:07;9.60;67.10
27072;DHT22;14613;46.308;25.288;2023-03-11T16:36:33;9.50;67.10
27072;DHT22;14613;46.308;25.288;2023-03-11T16:38:59;9.30;67.10
27072;DHT22;14613;46.308;25.288;2023-03-11T16:41:24;9.30;67.10
27072;DHT22;14613;46.308;25.288;2023-03-11T16:43:51;9.20;67.00
27072;DHT22;14613;46.308;25.288;2023-03-11T16:46:17;9.20;66.80
27072;DHT22;14613;46.308;25.288;2023-03-11T16:48:43;9.00;66.60
27072;DHT22;14613;46.308;25.288;2023-03-11T16:51:09;8.90;66.50
27072;DHT22;14613;46.308;25.288;2023-03-11T16:53:35;8.70;66.70
27072;DHT22;14613;46.308;25.288;2023-03-11T16:56:04;8.60;66.90
27072;DHT22;14613;46.308;25.288;2023-03-11T16:58:30;8.50;67.10
27072;DHT22;14613;46.308;25.288;2023-03-11T17:00:56;8.40;67.30
27072;DHT22;14613;46.308;25.288;2023-03-11T17:03:22;8.20;67.70
27072;DHT22;14613;46.308;25.288;2023-03-11T17:05:48;7.90;68.10
27072;DHT22;14613;46.308;25.288;2023-03-11T17:08:14;7.80;68.60
27072;DHT22;14613;46.308;25.288;2023-03-11T17:10:43;7.70;68.80
27072;DHT22;14613;46.308;25.288;2023-03-11T17:13:11;7.60;69.10